sensor_id;sensor_type;location;lat;lon;timestamp;pressure;altitude;pressure_sealevel;temperature;humidity
62051;BME280;48008;51.204;6.766;2023-04-06T06:59:49;101213.44;;;5.72;51.60
62051;BME280;48008;51.204;6.766;2023-04-06T07:02:20;101211.13;;;5.81;51.33
62051;BME280;48008;51.204;6.766;2023-04-06T07:04:48;101211.84;;;5.83;50.88
62051;BME280;48008;51.204;6.766;2023-04-06T07:07:16;101210.88;;;5.60;50.92
62051;BME280;48008;51.204;6.766;2023-04-06T07:09:43;101214.59;;;5.81;52.45
62051;BME280;48008;51.204;6.766;2023-04-06T07:12:10;101214.63;;;5.92;51.00
62051;BME280;48008;51.204;6.766;2023-04-06T07:14:37;101210.13;;;6.19;50.84
62051;BME280;48008;51.204;6.766;2023-04-06T07:17:03;101215.53;;;6.28;50.10
62051;BME280;48008;51.204;6.766;2023-04-06T07:19:30;101201.53;;;6.28;50.98
62051;BME280;48008;51.204;6.766;2023-04-06T07:21:58;101200.25;;;6.33;50.30
62051;BME280;48008;51.204;6.766;2023-04-06T07:24:25;101202.78;;;6.46;50.95
62051;BME280;48008;51.204;6.766;2023-04-06T07:26:52;101197.66;;;6.56;49.97
62051;BME280;48008;51.204;6.766;2023-04-06T07:29:19;101194.66;;;6.61;50.22
62051;BME280;48008;51.204;6.766;2023-04-06T07:31:46;101202.47;;;6.73;50.76
62051;BME280;48008;51.204;6.766;2023-04-06T07:34:14;101201.78;;;6.94;49.79
62051;BME280;48008;51.204;6.766;2023-04-06T07:36:41;101198.06;;;7.08;49.66
62051;BME280;48008;51.204;6.766;2023-04-06T07:39:08;101197.22;;;7.07;49.99
62051;BME280;48008;51.204;6.766;2023-04-06T07:41:36;101190.16;;;7.08;50.17
62051;BME280;48008;51.204;6.766;2023-04-06T07:44:03;101190.63;;;7.24;49.40
62051;BME280;48008;51.204;6.766;2023-04-06T07:46:31;101198.03;;;7.42;49.89
62051;BME280;48008;51.204;6.766;2023-04-06T07:48:59;101197.44;;;7.49;48.99
62051;BME280;48008;51.204;6.766;2023-04-06T07:51:28;101183.34;;;7.60;48.63
62051;BME280;48008;51.204;6.766;2023-04-06T07:53:55;101186.22;;;7.68;48.02
62051;BME280;48008;51.204;6.766;2023-04-06T07:56:22;101193.22;;;7.91;47.96
62051;BME280;48008;51.204;6.766;2023-04-06T07:58:49;101187.56;;;7.63;47.84
62051;BME280;48008;51.204;6.766;2023-04-06T08:01:17;101187.75;;;7.71;46.21
62051;BME280;48008;51.204;6.766;2023-04-06T08:03:44;101194.66;;;7.40;47.51
62051;BME280;48008;51.204;6.766;2023-04-06T08:06:11;101185.88;;;7.62;47.45
62051;BME280;48008;51.204;6.766;2023-04-06T08:08:38;101204.88;;;7.44;46.16
62051;BME280;48008;51.204;6.766;2023-04-06T08:11:05;101189.50;;;7.61;47.88
62051;BME280;48008;51.204;6.766;2023-04-06T08:13:31;101182.41;;;7.61;47.92
62051;BME280;48008;51.204;6.766;2023-04-06T08:15:58;101186.97;;;7.59;47.58
62051;BME280;48008;51.204;6.766;2023-04-06T08:18:26;101184.31;;;8.03;47.19
62051;BME280;48008;51.204;6.766;2023-04-06T08:20:54;101185.25;;;8.02;47.66
62051;BME280;48008;51.204;6.766;2023-04-06T08:23:21;101183.06;;;8.07;48.33
62051;BME280;48008;51.204;6.766;2023-04-06T08:25:48;101182.66;;;8.23;46.76
62051;BME280;48008;51.204;6.766;2023-04-06T08:28:14;101190.94;;;8.18;47.65
62051;BME280;48008;51.204;6.766;2023-04-06T08:30:42;101191.53;;;8.22;47.17
62051;BME280;48008;51.204;6.766;2023-04-06T08:33:09;101182.59;;;8.34;46.56
62051;BME280;48008;51.204;6.766;2023-04-06T08:35:36;101183.28;;;8.36;46.19
62051;BME280;48008;51.204;6.766;2023-04-06T08:38:03;101180.94;;;8.54;47.00
62051;BME280;48008;51.204;6.766;2023-04-06T08:40:30;101195.78;;;8.67;47.26
62051;BME280;48008;51.204;6.766;2023-04-06T08:43:01;101190.03;;;8.92;46.96
62051;BME280;48008;51.204;6.766;2023-04-06T08:45:30;101180.97;;;9.26;45.71
62051;BME280;48008;51.204;6.766;2023-04-06T08:47:57;101184.69;;;9.54;45.58
62051;BME280;48008;51.204;6.766;2023-04-06T08:50:25;101173.00;;;9.86;45.82
62051;BME280;48008;51.204;6.766;2023-04-06T08:52:52;101170.91;;;10.09;44.27
62051;BME280;48008;51.204;6.766;2023-04-06T08:55:20;101177.59;;;10.23;43.70
62051;BME280;48008;51.204;6.766;2023-04-06T08:57:47;101171.75;;;10.19;43.81
62051;BME280;48008;51.204;6.766;2023-04-06T09:00:15;101171.75;;;10.09;44.15
62051;BME280;48008;51.204;6.766;2023-04-06T09:02:45;101167.84;;;10.23;44.72
62051;BME280;48008;51.204;6.766;2023-04-06T09:05:13;101164.78;;;10.37;44.51
62051;BME280;48008;51.204;6.766;2023-04-06T09:07:40;101170.97;;;10.66;43.90
62051;BME280;48008;51.204;6.766;2023-04-06T09:10:07;101174.50;;;10.56;43.21
62051;BME280;48008;51.204;6.766;2023-04-06T09:12:34;101176.19;;;10.57;43.13
62051;BME280;48008;51.204;6.766;2023-04-06T09:15:02;101175.66;;;10.91;41.65
62051;BME280;48008;51.204;6.766;2023-04-06T09:17:31;101173.56;;;10.85;41.71
62051;BME280;48008;51.204;6.766;2023-04-06T09:20:01;101172.28;;;10.99;41.87
62051;BME280;48008;51.204;6.766;2023-04-06T09:22:38;101174.25;;;10.97;41.88
62051;BME280;48008;51.204;6.766;2023-04-06T09:25:06;101173.84;;;10.92;41.79
62051;BME280;48008;51.204;6.766;2023-04-06T09:27:34;101169.22;;;10.94;41.60
62051;BME280;48008;51.204;6.766;2023-04-06T09:30:06;101167.91;;;11.36;41.03
62051;BME280;48008;51.204;6.766;2023-04-06T09:32:43;101168.09;;;11.52;39.81
62051;BME280;48008;51.204;6.766;2023-04-06T09:35:12;101165.66;;;11.59;40.57
62051;BME280;48008;51.204;6.766;2023-04-06T09:37:39;101166.28;;;11.88;40.25
62051;BME280;48008;51.204;6.766;2023-04-06T09:40:06;101160.72;;;11.64;40.28
62051;BME280;48008;51.204;6.766;2023-04-06T09:42:34;101158.91;;;12.18;40.32
62051;BME280;48008;51.204;6.766;2023-04-06T09:45:02;101150.69;;;12.56;39.61
62051;BME280;48008;51.204;6.766;2023-04-06T09:47:30;101148.53;;;12.85;38.60
62051;BME280;48008;51.204;6.766;2023-04-06T09:50:00;101156.91;;;13.33;37.58
62051;BME280;48008;51.204;6.766;2023-04-06T09:52:33;101145.28;;;13.42;37.58
62051;BME280;48008;51.204;6.766;2023-04-06T09:55:03;101150.69;;;14.00;36.39
62051;BME280;48008;51.204;6.766;2023-04-06T09:57:34;101150.16;;;13.80;35.57
62051;BME280;48008;51.204;6.766;2023-04-06T10:00:06;101151.00;;;13.80;36.29
62051;BME280;48008;51.204;6.766;2023-04-06T10:03:02;101147.00;;;13.76;37.32
62051;BME280;48008;51.204;6.766;2023-04-06T10:05:57;101149.19;;;13.81;37.41
62051;BME280;48008;51.204;6.766;2023-04-06T10:08:27;101156.53;;;13.79;37.63
62051;BME280;48008;51.204;6.766;2023-04-06T10:10:56;101152.19;;;13.86;36.50
62051;BME280;48008;51.204;6.766;2023-04-06T10:13:24;101156.50;;;13.87;37.16
62051;BME280;48008;51.204;6.766;2023-04-06T10:15:51;101146.97;;;13.60;37.78
62051;BME280;48008;51.204;6.766;2023-04-06T10:18:18;101149.16;;;13.73;36.40
62051;BME280;48008;51.204;6.766;2023-04-06T10:20:56;101153.31;;;13.67;37.70
62051;BME280;48008;51.204;6.766;2023-04-06T10:23:30;101158.81;;;13.57;36.87
62051;BME280;48008;51.204;6.766;2023-04-06T10:25:59;101152.50;;;13.83;37.72
62051;BME280;48008;51.204;6.766;2023-04-06T10:28:31;101153.34;;;13.92;36.88
62051;BME280;48008;51.204;6.766;2023-04-06T10:30:59;101154.34;;;14.07;37.06
62051;BME280;48008;51.204;6.766;2023-04-06T10:33:27;101150.00;;;14.31;36.54
62051;BME280;48008;51.204;6.766;2023-04-06T10:35:54;101150.16;;;14.37;36.18
62051;BME280;48008;51.204;6.766;2023-04-06T10:38:37;101144.97;;;14.52;36.12
62051;BME280;48008;51.204;6.766;2023-04-06T10:41:08;101146.53;;;14.94;35.95
62051;BME280;48008;51.204;6.766;2023-04-06T10:43:36;101143.53;;;14.89;35.39
62051;BME280;48008;51.204;6.766;2023-04-06T10:46:05;101134.00;;;15.34;35.55
62051;BME280;48008;51.204;6.766;2023-04-06T10:48:48;101137.00;;;15.00;34.65
62051;BME280;48008;51.204;6.766;2023-04-06T10:51:17;101149.28;;;14.53;35.19
62051;BME280;48008;51.204;6.766;2023-04-06T10:53:45;101143.94;;;14.53;36.16
62051;BME280;48008;51.204;6.766;2023-04-06T10:56:15;101142.94;;;14.71;36.72
62051;BME280;48008;51.204;6.766;2023-04-06T10:58:47;101142.66;;;14.33;35.85
62051;BME280;48008;51.204;6.766;2023-04-06T11:01:16;101133.00;;;14.07;36.68
62051;BME280;48008;51.204;6.766;2023-04-06T11:03:47;101128.19;;;13.78;37.99
62051;BME280;48008;51.204;6.766;2023-04-06T11:06:19;101129.00;;;13.11;38.47
62051;BME280;48008;51.204;6.766;2023-04-06T11:08:47;101130.97;;;13.09;39.03
62051;BME280;48008;51.204;6.766;2023-04-06T11:11:16;101128.63;;;13.06;39.83
62051;BME280;48008;51.204;6.766;2023-04-06T11:13:48;101134.63;;;12.65;39.68
62051;BME280;48008;51.204;6.766;2023-04-06T11:16:17;101144.09;;;12.94;40.69
62051;BME280;48008;51.204;6.766;2023-04-06T11:19:04;101140.25;;;12.97;41.56
62051;BME280;48008;51.204;6.766;2023-04-06T11:21:36;101133.53;;;12.50;41.97
62051;BME280;48008;51.204;6.766;2023-04-06T11:24:05;101138.59;;;12.61;42.12
62051;BME280;48008;51.204;6.766;2023-04-06T11:26:37;101125.50;;;12.42;43.25
62051;BME280;48008;51.204;6.766;2023-04-06T11:29:04;101133.03;;;12.46;42.38
62051;BME280;48008;51.204;6.766;2023-04-06T11:31:31;101132.25;;;12.62;41.55
62051;BME280;48008;51.204;6.766;2023-04-06T11:33:58;101131.84;;;12.75;41.26
62051;BME280;48008;51.204;6.766;2023-04-06T11:36:27;101139.13;;;12.99;40.89
62051;BME280;48008;51.204;6.766;2023-04-06T11:38:56;101134.97;;;13.05;40.34
62051;BME280;48008;51.204;6.766;2023-04-06T11:41:23;101126.94;;;12.97;42.89
62051;BME280;48008;51.204;6.766;2023-04-06T11:43:55;101130.63;;;12.70;41.64
62051;BME280;48008;51.204;6.766;2023-04-06T11:46:22;101125.13;;;12.63;42.10
62051;BME280;48008;51.204;6.766;2023-04-06T11:48:49;101112.56;;;12.81;41.60
62051;BME280;48008;51.204;6.766;2023-04-06T11:51:23;101116.94;;;12.91;41.39
62051;BME280;48008;51.204;6.766;2023-04-06T11:53:50;101112.28;;;12.93;41.44
62051;BME280;48008;51.204;6.766;2023-04-06T11:56:32;101113.06;;;13.19;42.78
62051;BME280;48008;51.204;6.766;2023-04-06T11:58:59;101113.22;;;13.18;41.88
62051;BME280;48008;51.204;6.766;2023-04-06T12:01:26;101110.91;;;13.23;43.12
62051;BME280;48008;51.204;6.766;2023-04-06T12:03:53;101118.72;;;13.24;43.35
62051;BME280;48008;51.204;6.766;2023-04-06T12:06:22;101115.63;;;13.37;42.53
62051;BME280;48008;51.204;6.766;2023-04-06T12:08:50;101113.31;;;13.00;43.52
62051;BME280;48008;51.204;6.766;2023-04-06T12:11:16;101108.91;;;13.25;43.80
62051;BME280;48008;51.204;6.766;2023-04-06T12:13:43;101108.91;;;13.25;43.07
62051;BME280;48008;51.204;6.766;2023-04-06T12:16:10;101101.06;;;13.23;43.31
62051;BME280;48008;51.204;6.766;2023-04-06T12:18:36;101102.72;;;13.16;42.13
62051;BME280;48008;51.204;6.766;2023-04-06T12:21:03;101105.63;;;12.97;42.70
62051;BME280;48008;51.204;6.766;2023-04-06T12:23:31;101101.06;;;13.23;42.28
62051;BME280;48008;51.204;6.766;2023-04-06T12:25:58;101104.91;;;13.21;41.57
62051;BME280;48008;51.204;6.766;2023-04-06T12:28:25;101104.91;;;13.21;40.81
62051;BME280;48008;51.204;6.766;2023-04-06T12:30:53;101107.22;;;13.24;40.84
62051;BME280;48008;51.204;6.766;2023-04-06T12:33:20;101113.00;;;13.11;41.71
62051;BME280;48008;51.204;6.766;2023-04-06T12:35:47;101106.56;;;13.22;40.11
62051;BME280;48008;51.204;6.766;2023-04-06T12:38:14;101102.66;;;13.51;40.89
62051;BME280;48008;51.204;6.766;2023-04-06T12:40:42;101105.16;;;13.60;39.52
62051;BME280;48008;51.204;6.766;2023-04-06T12:43:09;101107.63;;;13.37;40.00
62051;BME280;48008;51.204;6.766;2023-04-06T12:45:36;101104.34;;;13.09;41.45
62051;BME280;48008;51.204;6.766;2023-04-06T12:48:03;101111.81;;;12.97;41.96
62051;BME280;48008;51.204;6.766;2023-04-06T12:50:29;101112.66;;;12.63;42.86
62051;BME280;48008;51.204;6.766;2023-04-06T12:52:56;101104.22;;;12.42;43.24
62051;BME280;48008;51.204;6.766;2023-04-06T12:55:23;101104.44;;;12.48;43.68
62051;BME280;48008;51.204;6.766;2023-04-06T12:57:50;101111.06;;;12.44;44.30
62051;BME280;48008;51.204;6.766;2023-04-06T13:00:17;101101.88;;;12.39;43.79
62051;BME280;48008;51.204;6.766;2023-04-06T13:02:44;101103.50;;;12.32;44.10
62051;BME280;48008;51.204;6.766;2023-04-06T13:05:14;101099.94;;;12.23;45.26
62051;BME280;48008;51.204;6.766;2023-04-06T13:07:45;101103.22;;;12.43;44.58
62051;BME280;48008;51.204;6.766;2023-04-06T13:10:13;101098.94;;;12.24;45.36
62051;BME280;48008;51.204;6.766;2023-04-06T13:12:40;101097.06;;;12.16;44.73
62051;BME280;48008;51.204;6.766;2023-04-06T13:15:07;101105.28;;;12.23;47.54
62051;BME280;48008;51.204;6.766;2023-04-06T13:17:34;101107.28;;;12.29;48.14
62051;BME280;48008;51.204;6.766;2023-04-06T13:20:01;101102.06;;;12.45;47.99
62051;BME280;48008;51.204;6.766;2023-04-06T13:22:27;101101.38;;;12.35;47.93
62051;BME280;48008;51.204;6.766;2023-04-06T13:24:54;101111.16;;;12.35;48.95
62051;BME280;48008;51.204;6.766;2023-04-06T13:27:21;101107.41;;;12.19;50.17
62051;BME280;48008;51.204;6.766;2023-04-06T13:29:48;101108.34;;;11.92;50.41
62051;BME280;48008;51.204;6.766;2023-04-06T13:32:15;101091.84;;;11.88;50.93
62051;BME280;48008;51.204;6.766;2023-04-06T13:34:42;101102.41;;;11.62;50.83
62051;BME280;48008;51.204;6.766;2023-04-06T13:37:12;101096.34;;;11.52;52.49
62051;BME280;48008;51.204;6.766;2023-04-06T13:39:39;101099.16;;;11.50;53.75
62051;BME280;48008;51.204;6.766;2023-04-06T13:42:06;101100.22;;;11.58;53.79
62051;BME280;48008;51.204;6.766;2023-04-06T13:44:33;101093.06;;;11.58;54.06
62051;BME280;48008;51.204;6.766;2023-04-06T13:47:00;101101.66;;;11.70;53.66
62051;BME280;48008;51.204;6.766;2023-04-06T13:49:26;101091.03;;;11.52;54.65
62051;BME280;48008;51.204;6.766;2023-04-06T13:51:53;101097.25;;;11.43;55.49
62051;BME280;48008;51.204;6.766;2023-04-06T13:54:20;101095.09;;;11.10;57.23
62051;BME280;48008;51.204;6.766;2023-04-06T13:56:47;101087.91;;;11.39;57.95
62051;BME280;48008;51.204;6.766;2023-04-06T13:59:13;101100.81;;;11.33;55.67
62051;BME280;48008;51.204;6.766;2023-04-06T14:01:40;101097.63;;;11.30;54.58
62051;BME280;48008;51.204;6.766;2023-04-06T14:04:07;101095.81;;;11.48;53.82
62051;BME280;48008;51.204;6.766;2023-04-06T14:06:33;101090.94;;;11.44;55.67
62051;BME280;48008;51.204;6.766;2023-04-06T14:09:01;101089.50;;;11.49;56.90
62051;BME280;48008;51.204;6.766;2023-04-06T14:11:28;101090.91;;;11.53;57.30
62051;BME280;48008;51.204;6.766;2023-04-06T14:13:54;101084.94;;;11.42;56.09
62051;BME280;48008;51.204;6.766;2023-04-06T14:16:23;101081.47;;;11.41;56.85
62051;BME280;48008;51.204;6.766;2023-04-06T14:18:50;101081.56;;;11.31;58.92
62051;BME280;48008;51.204;6.766;2023-04-06T14:21:17;101080.25;;;10.90;58.42
62051;BME280;48008;51.204;6.766;2023-04-06T14:23:44;101089.53;;;10.76;60.95
62051;BME280;48008;51.204;6.766;2023-04-06T14:26:12;101084.84;;;10.60;61.06
62051;BME280;48008;51.204;6.766;2023-04-06T14:28:39;101079.63;;;10.41;62.49
62051;BME280;48008;51.204;6.766;2023-04-06T14:31:10;101081.97;;;10.44;60.50
62051;BME280;48008;51.204;6.766;2023-04-06T14:33:39;101077.66;;;10.43;60.90
62051;BME280;48008;51.204;6.766;2023-04-06T14:36:07;101086.06;;;10.18;61.32
62051;BME280;48008;51.204;6.766;2023-04-06T14:38:34;101079.97;;;9.98;62.69
62051;BME280;48008;51.204;6.766;2023-04-06T14:41:01;101078.16;;;9.89;65.81
62051;BME280;48008;51.204;6.766;2023-04-06T14:43:28;101086.09;;;9.89;66.12
62051;BME280;48008;51.204;6.766;2023-04-06T14:45:59;101081.66;;;9.90;68.91
62051;BME280;48008;51.204;6.766;2023-04-06T14:48:26;101077.06;;;9.92;68.71
62051;BME280;48008;51.204;6.766;2023-04-06T14:50:54;101079.31;;;9.77;71.66
62051;BME280;48008;51.204;6.766;2023-04-06T14:53:22;101076.22;;;9.72;70.75
62051;BME280;48008;51.204;6.766;2023-04-06T14:55:49;101083.06;;;9.74;71.23
62051;BME280;48008;51.204;6.766;2023-04-06T14:58:19;101077.03;;;9.82;72.89
62051;BME280;48008;51.204;6.766;2023-04-06T15:00:46;101072.63;;;9.53;74.19
62051;BME280;48008;51.204;6.766;2023-04-06T15:03:13;101075.13;;;9.65;72.23
62051;BME280;48008;51.204;6.766;2023-04-06T15:05:41;101061.16;;;9.53;75.31
62051;BME280;48008;51.204;6.766;2023-04-06T15:08:08;101062.97;;;9.62;80.09
62051;BME280;48008;51.204;6.766;2023-04-06T15:10:37;101068.69;;;9.67;81.40
62051;BME280;48008;51.204;6.766;2023-04-06T15:13:03;101066.06;;;9.57;80.27
62051;BME280;48008;51.204;6.766;2023-04-06T15:15:30;101063.41;;;9.57;80.43
62051;BME280;48008;51.204;6.766;2023-04-06T15:17:57;101061.44;;;9.79;79.60
62051;BME280;48008;51.204;6.766;2023-04-06T15:20:23;101064.78;;;9.61;79.43
62051;BME280;48008;51.204;6.766;2023-04-06T15:22:50;101059.22;;;9.55;79.79
62051;BME280;48008;51.204;6.766;2023-04-06T15:25:17;101056.97;;;9.60;80.87
62051;BME280;48008;51.204;6.766;2023-04-06T15:27:43;101055.31;;;9.49;82.11
62051;BME280;48008;51.204;6.766;2023-04-06T15:30:10;101058.38;;;9.54;82.44
62051;BME280;48008;51.204;6.766;2023-04-06T15:32:37;101058.66;;;9.51;85.15
62051;BME280;48008;51.204;6.766;2023-04-06T15:35:10;101055.47;;;9.57;85.21
62051;BME280;48008;51.204;6.766;2023-04-06T15:37:38;101063.41;;;9.57;85.42
62051;BME280;48008;51.204;6.766;2023-04-06T15:40:05;101055.88;;;9.43;87.05
62051;BME280;48008;51.204;6.766;2023-04-06T15:42:31;101058.78;;;9.40;87.88
